createdAt,value
2023-03-14T00:01:46.248Z,98462.78
2023-03-14T00:03:48.599Z,98479.88
2023-03-14T00:05:50.910Z,98469.63
2023-03-14T00:07:53.023Z,98466.91
2023-03-14T00:09:55.281Z,98461.91
2023-03-14T00:11:58.435Z,98465.19
2023-03-14T00:14:01.257Z,98476.63
2023-03-14T00:16:06.419Z,98468.84
2023-03-14T00:18:08.794Z,98469.72
2023-03-14T00:20:12.534Z,98475.13
2023-03-14T00:22:14.809Z,98474.34
2023-03-14T00:24:17.344Z,98476.16
2023-03-14T00:26:22.300Z,98470.75
2023-03-14T00:28:24.625Z,98480.00
2023-03-14T00:30:26.808Z,98481.13
2023-03-14T00:32:28.964Z,98487.78
2023-03-14T00:34:32.499Z,98475.88
2023-03-14T00:36:34.772Z,98480.47
2023-03-14T00:38:38.179Z,98481.06
2023-03-14T00:40:41.046Z,98493.84
2023-03-14T00:42:43.265Z,98485.44
2023-03-14T00:44:45.473Z,98483.19
2023-03-14T00:46:47.733Z,98500.25
2023-03-14T00:48:50.161Z,98496.69
2023-03-14T00:50:52.385Z,98493.47
2023-03-14T00:52:54.746Z,98505.38
2023-03-14T00:54:57.107Z,98506.53
2023-03-14T00:56:59.309Z,98509.84
2023-03-14T00:59:01.647Z,98507.13
2023-03-14T01:01:08.504Z,98501.94
2023-03-14T01:03:11.632Z,98517.59
2023-03-14T01:05:14.055Z,98588.56
2023-03-14T01:07:16.859Z,98579.91
2023-03-14T01:09:19.118Z,98593.03
2023-03-14T01:11:24.715Z,98606.66
2023-03-14T01:13:26.998Z,98617.06
2023-03-14T01:15:29.196Z,98637.56
2023-03-14T01:17:31.744Z,98641.06
2023-03-14T01:19:34.026Z,98643.75
2023-03-14T01:21:36.715Z,98653.34
2023-03-14T01:23:38.851Z,98667.88
2023-03-14T01:25:43.120Z,98670.47
2023-03-14T01:27:47.717Z,98674.97
2023-03-14T01:29:50.141Z,98686.09
2023-03-14T01:31:52.334Z,98696.53
2023-03-14T01:33:55.166Z,98701.72
2023-03-14T01:35:57.539Z,98720.69
2023-03-14T01:37:59.730Z,98723.31
2023-03-14T01:40:02.160Z,98730.16
2023-03-14T01:42:04.751Z,98740.50
2023-03-14T01:44:07.652Z,98752.66
2023-03-14T01:46:13.538Z,98756.91
2023-03-14T01:48:16.213Z,98757.81
2023-03-14T01:50:18.465Z,98763.78
2023-03-14T01:52:26.389Z,98771.56
2023-03-14T01:54:34.921Z,98771.53
2023-03-14T01:56:38.251Z,98775.91
2023-03-14T01:58:42.930Z,98787.84
2023-03-14T02:00:45.197Z,98800.69
2023-03-14T02:02:51.730Z,98801.59
2023-03-14T02:04:55.522Z,98808.41
2023-03-14T02:07:01.584Z,98823.84
2023-03-14T02:09:05.276Z,98827.25
2023-03-14T02:11:08.532Z,98837.53
2023-03-14T02:13:11.596Z,98834.09
2023-03-14T02:15:14.028Z,98835.81
2023-03-14T02:17:18.494Z,98838.34
2023-03-14T02:19:30.210Z,98833.22
2023-03-14T02:21:38.439Z,98849.53
2023-03-14T02:24:00.178Z,98846.06
2023-03-14T02:26:10.213Z,98852.91
2023-03-14T02:28:13.988Z,98860.63
2023-03-14T02:30:19.505Z,98869.22
2023-03-14T02:32:24.471Z,98876.09
2023-03-14T02:34:27.336Z,98884.66
2023-03-14T02:36:30.946Z,98887.25
2023-03-14T02:38:36.915Z,98915.50
2023-03-14T02:40:38.870Z,98920.63
2023-03-14T02:42:40.904Z,98929.25
2023-03-14T02:44:49.277Z,98932.69
2023-03-14T02:46:51.636Z,98949.78
2023-03-14T02:48:57.280Z,98946.38
2023-03-14T02:51:01.773Z,98954.03
2023-03-14T02:53:04.028Z,98966.00
2023-03-14T02:55:07.180Z,98970.28
2023-03-14T02:57:09.461Z,98966.91
2023-03-14T02:59:11.535Z,98977.13
2023-03-14T03:01:13.511Z,98977.97
2023-03-14T03:03:15.859Z,98981.41
2023-03-14T03:05:18.060Z,98980.56
2023-03-14T03:07:20.338Z,98989.13
2023-03-14T03:09:22.310Z,98992.50
2023-03-14T03:11:24.389Z,98995.97
2023-03-14T03:13:26.852Z,99004.50
2023-03-14T03:15:29.358Z,98992.53
2023-03-14T03:17:31.320Z,99005.34
2023-03-14T03:19:34.748Z,99007.94
2023-03-14T03:21:36.785Z,99013.91
2023-03-14T03:23:38.750Z,99022.47
2023-03-14T03:25:41.010Z,99035.28
2023-03-14T03:27:43.119Z,99042.09
2023-03-14T03:29:45.428Z,99042.94
2023-03-14T03:31:47.456Z,99054.94
2023-03-14T03:33:49.489Z,99048.94
2023-03-14T03:35:52.093Z,99050.63
2023-03-14T03:37:54.171Z,99056.63
2023-03-14T03:39:56.245Z,99068.59
2023-03-14T03:41:58.251Z,99069.44
2023-03-14T03:44:00.356Z,99075.44
2023-03-14T03:46:06.295Z,99090.81
2023-03-14T03:48:08.641Z,99079.69
2023-03-14T03:50:11.514Z,99085.69
2023-03-14T03:52:13.622Z,99089.06
2023-03-14T03:54:16.321Z,99096.75
2023-03-14T03:56:18.307Z,99100.19
2023-03-14T03:58:20.637Z,99108.75
2023-03-14T04:00:22.914Z,99114.75
2023-03-14T04:02:24.976Z,99118.13
2023-03-14T04:04:27.505Z,99124.13
2023-03-14T04:06:29.768Z,99119.84
2023-03-14T04:08:32.147Z,99133.47
2023-03-14T04:10:37.417Z,99132.63
2023-03-14T04:12:39.359Z,99140.22
2023-03-14T04:14:42.253Z,99143.69
2023-03-14T04:16:44.313Z,99142.75
2023-03-14T04:18:46.276Z,99153.00
2023-03-14T04:20:54.335Z,99162.44
2023-03-14T04:22:56.375Z,99165.00
2023-03-14T04:24:58.349Z,99165.81
2023-03-14T04:27:00.445Z,99172.63
2023-03-14T04:29:02.397Z,99195.75
2023-03-14T04:31:08.261Z,99194.03
2023-03-14T04:33:10.421Z,99203.44
2023-03-14T04:35:12.504Z,99217.09
2023-03-14T04:37:14.577Z,99220.47
2023-03-14T04:39:16.729Z,99234.91
2023-03-14T04:41:18.735Z,99229.84
2023-03-14T04:43:20.736Z,99233.28
2023-03-14T04:45:22.900Z,99246.06
2023-03-14T04:47:24.862Z,99248.63
2023-03-14T04:49:26.822Z,99257.16
2023-03-14T04:51:28.862Z,99264.84
2023-03-14T04:53:32.919Z,99273.38
2023-03-14T04:55:35.896Z,99275.09
2023-03-14T04:57:37.847Z,99276.75
2023-03-14T04:59:39.778Z,99274.16
2023-03-14T05:01:42.390Z,99286.06
2023-03-14T05:03:44.378Z,99285.09
2023-03-14T05:05:46.891Z,99293.69
2023-03-14T05:07:48.940Z,99292.88
2023-03-14T05:09:50.918Z,99296.31
2023-03-14T05:11:53.235Z,99308.25
2023-03-14T05:13:55.299Z,99313.09
2023-03-14T05:16:05.609Z,99308.06
2023-03-14T05:18:07.611Z,99314.13
2023-03-14T05:20:10.938Z,99310.63
2023-03-14T05:22:13.311Z,99325.19
2023-03-14T05:24:15.461Z,99323.28
2023-03-14T05:26:18.112Z,99328.44
2023-03-14T05:28:20.136Z,99334.28
2023-03-14T05:30:22.936Z,99338.66
2023-03-14T05:32:24.987Z,99339.53
2023-03-14T05:34:27.178Z,99350.63
2023-03-14T05:36:29.239Z,99363.28
2023-03-14T05:38:31.243Z,99368.50
2023-03-14T05:40:33.218Z,99370.97
2023-03-14T05:42:35.201Z,99375.44
2023-03-14T05:44:37.149Z,99366.06
2023-03-14T05:46:39.255Z,99367.81
2023-03-14T05:48:41.361Z,99371.28
2023-03-14T05:50:43.379Z,99383.88
2023-03-14T05:52:45.341Z,99388.09
2023-03-14T05:54:47.327Z,99401.81
2023-03-14T05:56:49.325Z,99400.19
2023-03-14T05:58:51.312Z,99403.63
2023-03-14T06:00:53.300Z,99421.59
2023-03-14T06:02:55.318Z,99416.34
2023-03-14T06:04:57.317Z,99413.84
2023-03-14T06:06:59.364Z,99413.00
2023-03-14T06:09:01.572Z,99433.41
2023-03-14T06:11:05.259Z,99430.06
2023-03-14T06:13:07.295Z,99432.69
2023-03-14T06:15:09.799Z,99430.06
2023-03-14T06:17:11.802Z,99436.09
2023-03-14T06:19:14.220Z,99443.00
2023-03-14T06:21:19.240Z,99449.00
2023-03-14T06:23:21.292Z,99455.00
2023-03-14T06:25:23.249Z,99457.53
2023-03-14T06:27:25.314Z,99451.66
2023-03-14T06:29:27.325Z,99464.50
2023-03-14T06:31:29.324Z,99478.00
2023-03-14T06:33:31.984Z,99478.97
2023-03-14T06:35:34.080Z,99478.84
2023-03-14T06:37:36.165Z,99494.94
2023-03-14T06:39:39.875Z,99500.84
2023-03-14T06:41:42.026Z,99502.38
2023-03-14T06:43:43.985Z,99510.28
2023-03-14T06:45:46.100Z,99511.88
2023-03-14T06:47:48.053Z,99519.75
2023-03-14T06:49:51.592Z,99520.53
2023-03-14T06:51:53.751Z,99534.25
2023-03-14T06:53:55.761Z,99539.38
2023-03-14T06:55:57.744Z,99550.56
2023-03-14T06:58:00.052Z,99555.66
2023-03-14T07:00:02.315Z,99567.75
2023-03-14T07:02:04.472Z,99562.66
2023-03-14T07:04:06.915Z,99574.66
2023-03-14T07:06:09.206Z,99582.44
2023-03-14T07:08:11.821Z,99583.31
2023-03-14T07:10:14.214Z,99586.59
2023-03-14T07:12:16.269Z,99584.81
2023-03-14T07:14:19.798Z,99610.56
2023-03-14T07:16:22.857Z,99607.09
2023-03-14T07:18:26.005Z,99613.00
2023-03-14T07:20:28.237Z,99617.41
2023-03-14T07:22:30.254Z,99623.31
2023-03-14T07:24:32.477Z,99638.69
2023-03-14T07:26:34.513Z,99638.66
2023-03-14T07:28:36.495Z,99646.38
2023-03-14T07:30:39.411Z,99669.34
2023-03-14T07:32:41.915Z,99674.38
2023-03-14T07:34:44.440Z,99682.16
2023-03-14T07:36:47.761Z,99686.44
2023-03-14T07:38:52.147Z,99692.38
2023-03-14T07:41:02.147Z,99696.47
2023-03-14T07:43:05.074Z,99702.53
2023-03-14T07:45:08.514Z,99724.75
2023-03-14T07:47:12.340Z,99733.22
2023-03-14T07:49:14.781Z,99741.88
2023-03-14T07:51:17.000Z,99743.47
2023-03-14T07:53:19.877Z,99756.28
2023-03-14T07:55:22.302Z,99766.50
2023-03-14T07:57:25.308Z,99766.53
2023-03-14T07:59:28.423Z,99780.94
2023-03-14T08:01:30.843Z,99792.75
2023-03-14T08:03:33.063Z,99793.72
2023-03-14T08:05:38.336Z,99808.91
2023-03-14T08:07:40.500Z,99810.72
2023-03-14T08:09:43.023Z,99822.66
2023-03-14T08:11:45.336Z,99840.47
2023-03-14T08:13:50.960Z,99848.09
2023-03-14T08:15:53.306Z,99849.00
2023-03-14T08:17:55.961Z,99870.16
2023-03-14T08:19:58.276Z,99869.38
2023-03-14T08:22:00.639Z,99869.25
2023-03-14T08:24:02.967Z,99880.34
2023-03-14T08:26:06.012Z,99888.88
2023-03-14T08:28:08.801Z,99895.69
2023-03-14T08:30:13.756Z,99902.38
2023-03-14T08:32:16.220Z,99914.28
2023-03-14T08:34:18.852Z,99922.06
2023-03-14T08:36:23.982Z,99935.78
2023-03-14T08:38:26.954Z,99932.31
2023-03-14T08:40:39.648Z,99951.59
2023-03-14T08:42:42.319Z,99954.34
2023-03-14T08:44:50.421Z,99963.75
2023-03-14T08:46:52.757Z,99974.75
2023-03-14T08:48:55.094Z,99989.25
2023-03-14T08:50:58.722Z,100000.47
2023-03-14T08:53:02.066Z,100006.31
2023-03-14T08:55:05.046Z,100015.50
2023-03-14T08:57:07.794Z,100026.69
2023-03-14T08:59:11.887Z,100017.28
2023-03-14T09:01:14.489Z,100034.38
2023-03-14T09:03:16.813Z,100029.81
2023-03-14T09:05:19.405Z,100050.41
2023-03-14T09:07:24.853Z,100047.78
2023-03-14T09:09:56.750Z,100064.13
2023-03-14T09:11:59.248Z,100074.41
2023-03-14T09:14:01.795Z,100085.28
2023-03-14T09:16:06.067Z,100096.03
2023-03-14T09:18:08.345Z,100095.38
2023-03-14T09:20:11.867Z,100114.81
2023-03-14T09:22:13.998Z,100125.06
2023-03-14T09:24:16.604Z,100130.81
2023-03-14T09:26:18.989Z,100142.75
2023-03-14T09:28:21.017Z,100149.56
2023-03-14T09:30:23.490Z,100155.19
2023-03-14T09:32:25.951Z,100158.75
2023-03-14T09:34:28.635Z,100163.69
2023-03-14T09:36:30.949Z,100166.19
2023-03-14T09:38:34.231Z,100173.88
2023-03-14T09:40:37.426Z,100177.38
2023-03-14T09:42:43.451Z,100188.34
2023-03-14T09:44:51.958Z,100187.59
2023-03-14T09:46:58.564Z,100196.19
2023-03-14T09:49:01.125Z,100209.75
2023-03-14T09:51:12.883Z,100215.75
2023-03-14T09:53:19.376Z,100222.41
2023-03-14T09:55:23.500Z,100224.59
2023-03-14T09:57:26.854Z,100230.38
2023-03-14T09:59:31.312Z,100245.63
2023-03-14T10:01:35.022Z,100247.44
2023-03-14T10:03:37.347Z,100258.00
2023-03-14T10:05:40.896Z,100258.22
2023-03-14T10:07:42.993Z,100273.72
2023-03-14T10:09:46.579Z,100277.22
2023-03-14T10:11:48.834Z,100276.56
2023-03-14T10:14:07.351Z,100265.53
2023-03-14T10:16:09.957Z,100277.38
2023-03-14T10:18:14.001Z,100269.06
2023-03-14T10:20:22.365Z,100279.41
2023-03-14T10:22:28.004Z,100286.22
2023-03-14T10:24:32.988Z,100287.38
2023-03-14T10:26:36.337Z,100295.22
2023-03-14T10:28:45.139Z,100311.59
2023-03-14T10:30:47.693Z,100320.88
2023-03-14T10:32:49.964Z,100321.88
2023-03-14T10:35:05.609Z,100320.34
2023-03-14T10:37:18.779Z,100333.06
2023-03-14T10:39:26.829Z,100332.34
2023-03-14T10:41:34.843Z,100338.34
2023-03-14T10:43:38.743Z,100342.59
2023-03-14T10:45:44.507Z,100347.41
2023-03-14T10:47:50.960Z,100350.94
2023-03-14T10:49:53.593Z,100356.19
2023-03-14T10:51:55.771Z,100363.97
2023-03-14T10:54:01.359Z,100374.59
2023-03-14T10:56:06.238Z,100381.69
2023-03-14T10:58:20.751Z,100385.25
2023-03-14T11:00:24.654Z,100384.53
2023-03-14T11:02:33.613Z,100394.97
2023-03-14T11:04:41.971Z,100394.22
2023-03-14T11:06:50.362Z,100408.97
2023-03-14T11:08:56.002Z,100416.66
2023-03-14T11:11:04.326Z,100421.16
2023-03-14T11:13:12.771Z,100421.97
2023-03-14T11:15:19.876Z,100429.84
2023-03-14T11:17:28.139Z,100434.91
2023-03-14T11:19:35.839Z,100442.06
2023-03-14T11:21:45.493Z,100442.13
2023-03-14T11:23:53.767Z,100452.56
2023-03-14T11:25:59.627Z,100451.03
2023-03-14T11:28:03.502Z,100452.91
2023-03-14T11:30:11.783Z,100458.22
2023-03-14T11:32:20.101Z,100466.81
2023-03-14T11:34:28.405Z,100457.63
2023-03-14T11:36:39.365Z,100461.41
2023-03-14T11:38:44.043Z,100461.78
2023-03-14T11:40:48.953Z,100466.31
2023-03-14T11:42:59.267Z,100471.88
2023-03-14T11:45:02.871Z,100465.09
2023-03-14T11:47:11.600Z,100469.69
2023-03-14T11:49:18.315Z,100477.75
2023-03-14T11:51:27.397Z,100476.94
2023-03-14T11:53:41.426Z,100490.25
2023-03-14T11:55:44.546Z,100480.25
2023-03-14T11:57:48.596Z,100483.00
2023-03-14T11:59:54.061Z,100494.00
2023-03-14T12:02:02.713Z,100489.00
2023-03-14T12:04:14.480Z,100500.00
2023-03-14T12:06:27.418Z,100490.78
2023-03-14T12:08:32.988Z,100502.91
2023-03-14T12:10:40.412Z,100502.81
2023-03-14T12:12:43.500Z,100513.03
2023-03-14T12:14:53.760Z,100514.72
2023-03-14T12:17:00.468Z,100506.31
2023-03-14T12:19:09.656Z,100507.41
2023-03-14T12:21:14.661Z,100513.34
2023-03-14T12:23:18.749Z,100523.81
2023-03-14T12:25:22.969Z,100523.03
2023-03-14T12:27:31.311Z,100522.16
2023-03-14T12:29:33.705Z,100527.34
2023-03-14T12:31:39.170Z,100520.59
2023-03-14T12:33:43.450Z,100534.41
2023-03-14T12:35:49.382Z,100526.09
2023-03-14T12:37:56.904Z,100533.03
2023-03-14T12:40:01.041Z,100529.91
2023-03-14T12:42:10.072Z,100542.00
2023-03-14T12:44:18.656Z,100535.94
2023-03-14T12:46:24.567Z,100538.50
2023-03-14T12:48:28.519Z,100530.66
2023-03-14T12:50:41.700Z,100548.69
2023-03-14T12:52:56.462Z,100545.13
2023-03-14T12:55:07.902Z,100537.59
2023-03-14T12:57:11.962Z,100554.09
2023-03-14T12:59:23.441Z,100542.19
2023-03-14T13:01:25.931Z,100532.72
2023-03-14T13:03:41.007Z,100550.09
2023-03-14T13:05:49.981Z,100538.97
2023-03-14T13:07:55.731Z,100557.94
2023-03-14T13:10:04.777Z,100559.56
2023-03-14T13:12:13.172Z,100555.28
2023-03-14T13:14:16.195Z,100558.53
2023-03-14T13:16:22.217Z,100565.38
2023-03-14T13:18:32.260Z,100564.41
2023-03-14T13:20:40.408Z,100567.75
2023-03-14T13:22:49.055Z,100561.53
2023-03-14T13:24:51.737Z,100567.47
2023-03-14T13:26:56.839Z,100575.19
2023-03-14T13:28:59.775Z,100573.63
2023-03-14T13:31:07.630Z,100573.47
2023-03-14T13:33:16.765Z,100579.78
2023-03-14T13:35:23.582Z,100578.16
2023-03-14T13:37:28.231Z,100588.38
2023-03-14T13:39:41.412Z,100591.88
2023-03-14T13:41:44.182Z,100596.09
2023-03-14T13:43:46.950Z,100591.59
2023-03-14T13:45:52.690Z,100595.22
2023-03-14T13:47:55.196Z,100594.50
2023-03-14T13:49:57.418Z,100593.00
2023-03-14T13:51:59.882Z,100596.50
2023-03-14T13:54:04.563Z,100594.09
2023-03-14T13:56:11.514Z,100595.94
2023-03-14T13:58:23.769Z,100607.34
2023-03-14T14:00:29.234Z,100596.31
2023-03-14T14:02:32.845Z,100613.72
2023-03-14T14:04:38.490Z,100614.56
2023-03-14T14:06:49.465Z,100607.69
2023-03-14T14:08:53.619Z,100618.06
2023-03-14T14:11:01.899Z,100619.69
2023-03-14T14:13:07.345Z,100620.72
2023-03-14T14:15:17.658Z,100627.69
2023-03-14T14:17:27.563Z,100631.19
2023-03-14T14:19:33.858Z,100638.88
2023-03-14T14:21:36.274Z,100636.44
2023-03-14T14:23:39.864Z,100633.00
2023-03-14T14:25:44.163Z,100641.72
2023-03-14T14:27:50.812Z,100638.28
2023-03-14T14:29:59.178Z,100638.38
2023-03-14T14:32:06.209Z,100646.97
2023-03-14T14:34:20.936Z,100657.25
2023-03-14T14:36:29.190Z,100663.16
2023-03-14T14:38:31.888Z,100666.50
2023-03-14T14:40:34.160Z,100670.78
2023-03-14T14:42:41.909Z,100660.31
2023-03-14T14:44:45.983Z,100672.09
2023-03-14T14:46:50.342Z,100671.19
2023-03-14T14:48:59.161Z,100679.66
2023-03-14T14:51:04.354Z,100676.16
2023-03-14T14:53:17.153Z,100681.47
2023-03-14T14:55:21.319Z,100678.13
2023-03-14T14:57:28.377Z,100673.16
2023-03-14T14:59:30.927Z,100678.44
2023-03-14T15:01:38.536Z,100683.69
2023-03-14T15:03:44.864Z,100686.47
2023-03-14T15:05:47.977Z,100689.16
2023-03-14T15:07:52.203Z,100688.22
2023-03-14T15:09:55.256Z,100692.63
2023-03-14T15:11:58.108Z,100696.06
2023-03-14T15:14:00.734Z,100696.13
2023-03-14T15:16:03.555Z,100697.84
2023-03-14T15:18:18.190Z,100702.94
2023-03-14T15:20:22.160Z,100701.88
2023-03-14T15:22:25.273Z,100703.66
2023-03-14T15:24:28.542Z,100701.88
2023-03-14T15:26:31.518Z,100707.03
2023-03-14T15:28:34.636Z,100706.19
2023-03-14T15:30:38.069Z,100705.44
2023-03-14T15:32:41.560Z,100709.00
2023-03-14T15:34:44.333Z,100701.34
2023-03-14T15:36:47.264Z,100697.09
2023-03-14T15:38:50.503Z,100706.72
2023-03-14T15:40:54.844Z,100708.50
2023-03-14T15:42:58.314Z,100709.34
2023-03-14T15:45:01.293Z,100707.25
2023-03-14T15:47:03.740Z,100716.88
2023-03-14T15:49:06.641Z,100701.31
2023-03-14T15:51:09.546Z,100722.69
2023-03-14T15:53:13.184Z,100699.28
2023-03-14T15:55:16.021Z,100706.69
2023-03-14T15:57:18.461Z,100710.81
2023-03-14T15:59:23.315Z,100714.22
2023-03-14T16:01:26.493Z,100710.78
2023-03-14T16:03:30.841Z,100709.03
2023-03-14T16:05:33.752Z,100702.25
2023-03-14T16:07:38.026Z,100706.63
2023-03-14T16:10:11.953Z,100711.38
2023-03-14T16:12:14.235Z,100712.38
2023-03-14T16:14:17.146Z,100709.97
2023-03-14T16:16:20.723Z,100713.31
2023-03-14T16:18:24.745Z,100711.72
2023-03-14T16:20:31.355Z,100709.13
2023-03-14T16:22:38.781Z,100702.25
2023-03-14T16:24:42.406Z,100722.00
2023-03-14T16:26:49.616Z,100708.16
2023-03-14T16:28:52.395Z,100710.72
2023-03-14T16:31:04.223Z,100708.94
2023-03-14T16:33:12.605Z,100714.81
2023-03-14T16:35:23.601Z,100724.19
2023-03-14T16:37:28.023Z,100712.75
2023-03-14T16:39:51.088Z,100709.84
2023-03-14T16:41:59.254Z,100721.75
2023-03-14T16:44:02.749Z,100720.44
2023-03-14T16:46:07.673Z,100708.69
2023-03-14T16:48:10.383Z,100722.16
2023-03-14T16:50:20.253Z,100742.75
2023-03-14T16:52:22.781Z,100725.50
2023-03-14T16:54:25.529Z,100721.22
2023-03-14T16:56:28.780Z,100730.38
2023-03-14T16:58:31.779Z,100726.25
2023-03-14T17:00:34.323Z,100725.34
2023-03-14T17:02:38.378Z,100725.78
2023-03-14T17:04:42.273Z,100733.69
2023-03-14T17:06:45.948Z,100742.03
2023-03-14T17:08:49.270Z,100741.16
2023-03-14T17:10:52.572Z,100747.91
2023-03-14T17:12:55.379Z,100758.41
2023-03-14T17:15:00.172Z,100765.09
2023-03-14T17:17:02.883Z,100760.03
2023-03-14T17:19:06.106Z,100765.09
2023-03-14T17:21:10.102Z,100762.19
2023-03-14T17:23:13.213Z,100757.28
2023-03-14T17:25:16.669Z,100770.00
2023-03-14T17:27:21.092Z,100773.81
2023-03-14T17:29:30.826Z,100785.06
2023-03-14T17:31:34.234Z,100788.53
2023-03-14T17:33:45.008Z,100792.78
2023-03-14T17:35:53.406Z,100800.88
2023-03-14T17:38:02.706Z,100800.88
2023-03-14T17:40:07.012Z,100792.19
2023-03-14T17:42:13.830Z,100803.16
2023-03-14T17:44:16.839Z,100813.44
2023-03-14T17:46:19.962Z,100809.91
2023-03-14T17:48:27.148Z,100808.91
2023-03-14T17:50:30.313Z,100814.84
2023-03-14T17:52:34.844Z,100810.84
2023-03-14T17:54:37.964Z,100816.31
2023-03-14T17:56:44.289Z,100826.88
2023-03-14T17:58:47.208Z,100827.50
2023-03-14T18:00:53.533Z,100830.81
2023-03-14T18:02:58.545Z,100834.78
2023-03-14T18:05:05.151Z,100832.94
2023-03-14T18:07:08.189Z,100828.88
2023-03-14T18:09:11.601Z,100840.25
2023-03-14T18:11:14.960Z,100851.41
2023-03-14T18:13:21.960Z,100838.53
2023-03-14T18:15:24.686Z,100850.34
2023-03-14T18:17:27.727Z,100844.03
2023-03-14T18:19:30.547Z,100851.03
2023-03-14T18:21:33.765Z,100857.00
2023-03-14T18:23:37.038Z,100855.94
2023-03-14T18:25:39.971Z,100869.56
2023-03-14T18:27:43.815Z,100863.47
2023-03-14T18:29:54.480Z,100861.75
2023-03-14T18:31:58.755Z,100856.75
2023-03-14T18:34:01.911Z,100866.16
2023-03-14T18:36:07.728Z,100873.88
2023-03-14T18:38:10.511Z,100876.19
2023-03-14T18:40:17.540Z,100871.00
2023-03-14T18:42:19.980Z,100876.22
2023-03-14T18:44:22.826Z,100869.97
2023-03-14T18:46:25.531Z,100878.00
2023-03-14T18:48:29.721Z,100888.84
2023-03-14T18:50:32.196Z,100887.69
2023-03-14T18:52:34.873Z,100891.28
2023-03-14T18:54:37.637Z,100892.97
2023-03-14T18:56:42.162Z,100894.69
2023-03-14T18:58:46.039Z,100891.94
2023-03-14T19:00:50.221Z,100900.66
2023-03-14T19:02:53.278Z,100910.91
2023-03-14T19:04:55.632Z,100903.22
2023-03-14T19:06:58.741Z,100911.53
2023-03-14T19:09:02.833Z,100900.38
2023-03-14T19:11:07.642Z,100903.72
2023-03-14T19:13:10.182Z,100896.81
2023-03-14T19:15:12.500Z,100907.03
2023-03-14T19:17:15.086Z,100911.53
2023-03-14T19:19:18.804Z,100911.31
2023-03-14T19:21:27.200Z,100909.69
2023-03-14T19:23:31.079Z,100920.81
2023-03-14T19:25:33.952Z,100921.00
2023-03-14T19:27:37.144Z,100926.72
2023-03-14T19:29:42.466Z,100929.69
2023-03-14T19:31:45.102Z,100921.41
2023-03-14T19:33:48.438Z,100917.31
2023-03-14T19:35:50.994Z,100922.56
2023-03-14T19:37:53.244Z,100924.44
2023-03-14T19:39:55.492Z,100926.63
2023-03-14T19:41:59.631Z,100934.69
2023-03-14T19:44:02.532Z,100936.59
2023-03-14T19:46:06.217Z,100938.41
2023-03-14T19:48:10.409Z,100950.66
2023-03-14T19:50:13.031Z,100947.47
2023-03-14T19:52:15.152Z,100943.31
2023-03-14T19:54:17.408Z,100943.16
2023-03-14T19:56:22.128Z,100941.69
2023-03-14T19:58:25.146Z,100952.94
2023-03-14T20:00:27.859Z,100954.41
2023-03-14T20:02:30.262Z,100953.00
2023-03-14T20:04:34.090Z,100948.69
2023-03-14T20:06:36.573Z,100954.41
2023-03-14T20:08:39.325Z,100953.22
2023-03-14T20:10:41.779Z,100969.47
2023-03-14T20:12:45.808Z,100979.97
2023-03-14T20:14:48.155Z,100989.34
2023-03-14T20:16:50.552Z,100994.31
2023-03-14T20:18:52.948Z,101004.72
2023-03-14T20:20:55.800Z,101021.94
2023-03-14T20:22:58.426Z,101025.44
2023-03-14T20:25:00.905Z,101032.75
2023-03-14T20:27:04.648Z,101044.72
2023-03-14T20:29:07.368Z,101048.56
2023-03-14T20:31:09.725Z,101045.94
2023-03-14T20:33:13.449Z,101053.03
2023-03-14T20:35:23.726Z,101062.47
2023-03-14T20:37:26.220Z,101055.44
2023-03-14T20:39:28.827Z,101058.97
2023-03-14T20:41:31.334Z,101062.88
2023-03-14T20:43:34.549Z,101055.91
2023-03-14T20:45:36.979Z,101067.78
2023-03-14T20:47:39.873Z,101065.03
2023-03-14T20:49:42.467Z,101070.34
2023-03-14T20:51:44.634Z,101070.69
2023-03-14T20:53:47.097Z,101085.75
2023-03-14T20:55:50.644Z,101079.41
2023-03-14T20:57:52.950Z,101079.47
2023-03-14T20:59:55.434Z,101084.41
2023-03-14T21:01:58.129Z,101073.88
2023-03-14T21:04:00.839Z,101072.19
2023-03-14T21:06:05.898Z,101082.88
2023-03-14T21:08:08.313Z,101076.81
2023-03-14T21:10:12.532Z,101070.69
2023-03-14T21:12:15.044Z,101071.56
2023-03-14T21:14:19.118Z,101080.25
2023-03-14T21:16:21.686Z,101079.22
2023-03-14T21:18:24.637Z,101079.81
2023-03-14T21:20:27.459Z,101086.75
2023-03-14T21:22:29.910Z,101084.06
2023-03-14T21:24:34.709Z,101091.69
2023-03-14T21:26:37.080Z,101089.84
2023-03-14T21:28:39.512Z,101089.59
2023-03-14T21:30:41.922Z,101092.00
2023-03-14T21:32:44.282Z,101090.94
2023-03-14T21:34:49.218Z,101099.63
2023-03-14T21:36:52.355Z,101100.41
2023-03-14T21:38:54.475Z,101100.31
2023-03-14T21:40:57.950Z,101122.44
2023-03-14T21:43:00.265Z,101109.84
2023-03-14T21:45:02.440Z,101111.44
2023-03-14T21:47:07.092Z,101110.19
2023-03-14T21:49:09.324Z,101112.75
2023-03-14T21:51:11.465Z,101110.66
2023-03-14T21:53:13.625Z,101119.09
2023-03-14T21:55:19.727Z,101114.38
2023-03-14T21:57:21.873Z,101111.53
2023-03-14T21:59:24.857Z,101118.19
2023-03-14T22:01:27.196Z,101126.34
2023-03-14T22:03:29.444Z,101128.44
2023-03-14T22:05:31.575Z,101124.13
2023-03-14T22:07:33.687Z,101130.03
2023-03-14T22:09:36.190Z,101135.28
2023-03-14T22:11:38.363Z,101144.03
2023-03-14T22:13:40.802Z,101152.66
2023-03-14T22:15:45.923Z,101150.91
2023-03-14T22:17:48.328Z,101144.09
2023-03-14T22:19:51.468Z,101155.88
2023-03-14T22:21:54.177Z,101154.88
2023-03-14T22:23:56.228Z,101151.94
2023-03-14T22:25:58.269Z,101159.44
2023-03-14T22:28:00.593Z,101158.16
2023-03-14T22:30:03.461Z,101162.38
2023-03-14T22:32:06.498Z,101156.13
2023-03-14T22:34:09.334Z,101160.00
2023-03-14T22:36:11.382Z,101160.69
2023-03-14T22:38:13.446Z,101162.44
2023-03-14T22:40:15.809Z,101161.88
2023-03-14T22:42:18.109Z,101158.00
2023-03-14T22:44:20.232Z,101165.13
2023-03-14T22:46:22.327Z,101166.19
2023-03-14T22:48:24.576Z,101165.06
2023-03-14T22:50:26.984Z,101166.75
2023-03-14T22:52:32.161Z,101172.25
2023-03-14T22:54:34.453Z,101176.72
2023-03-14T22:56:36.640Z,101170.13
2023-03-14T22:58:39.091Z,101165.38
2023-03-14T23:00:41.234Z,101168.81
2023-03-14T23:02:43.297Z,101168.38
2023-03-14T23:04:45.750Z,101172.25
2023-03-14T23:06:47.928Z,101169.81
2023-03-14T23:08:49.956Z,101174.22
2023-03-14T23:10:53.604Z,101168.00
2023-03-14T23:12:57.845Z,101161.38
2023-03-14T23:15:00.327Z,101173.28
2023-03-14T23:17:02.341Z,101177.38
2023-03-14T23:19:04.412Z,101175.75
2023-03-14T23:21:09.503Z,101169.00
2023-03-14T23:23:13.952Z,101179.00
2023-03-14T23:25:16.499Z,101180.59
2023-03-14T23:27:18.668Z,101173.13
2023-03-14T23:29:21.688Z,101177.47
2023-03-14T23:31:23.819Z,101174.22
2023-03-14T23:33:27.669Z,101177.75
2023-03-14T23:35:29.899Z,101190.47
2023-03-14T23:37:33.576Z,101182.06
2023-03-14T23:39:35.809Z,101176.88
2023-03-14T23:41:37.999Z,101182.22
2023-03-14T23:43:42.010Z,101188.97
2023-03-14T23:45:48.020Z,101184.03
2023-03-14T23:47:50.216Z,101189.16
2023-03-14T23:49:52.445Z,101192.47
2023-03-14T23:51:54.628Z,101199.22